createdAt,value
2023-01-28T00:01:36.372Z,97601.63
2023-01-28T00:04:04.045Z,97605.44
2023-01-28T00:06:31.374Z,97597.31
2023-01-28T00:08:58.701Z,97606.91
2023-01-28T00:11:26.618Z,97603.91
2023-01-28T00:13:54.947Z,97599.84
2023-01-28T00:16:22.897Z,97602.63
2023-01-28T00:18:50.221Z,97603.25
2023-01-28T00:21:17.404Z,97605.41
2023-01-28T00:23:54.623Z,97602.56
2023-01-28T00:26:24.587Z,97598.25
2023-01-28T00:28:51.905Z,97598.84
2023-01-28T00:31:25.259Z,97591.81
2023-01-28T00:33:56.246Z,97602.63
2023-01-28T00:36:26.349Z,97591.13
2023-01-28T00:39:00.209Z,97595.78
2023-01-28T00:41:29.917Z,97594.97
2023-01-28T00:43:59.314Z,97593.59
2023-01-28T00:46:27.451Z,97596.44
2023-01-28T00:48:54.882Z,97592.53
2023-01-28T00:51:22.458Z,97594.28
2023-01-28T00:53:50.144Z,97594.59
2023-01-28T00:56:19.644Z,97596.59
2023-01-28T00:58:47.558Z,97603.03
2023-01-28T01:01:27.112Z,97603.91
2023-01-28T01:04:02.928Z,97599.13
2023-01-28T01:06:37.820Z,97606.44
2023-01-28T01:09:08.787Z,97604.84
2023-01-28T01:11:36.568Z,97606.09
2023-01-28T01:14:05.494Z,97615.56
2023-01-28T01:16:35.472Z,97619.50
2023-01-28T01:19:02.962Z,97618.47
2023-01-28T01:21:31.114Z,97609.34
2023-01-28T01:23:58.578Z,97611.16
2023-01-28T01:26:27.435Z,97614.13
2023-01-28T01:28:58.302Z,97618.94
2023-01-28T01:31:25.769Z,97616.53
2023-01-28T01:33:53.701Z,97611.22
2023-01-28T01:36:22.015Z,97616.59
2023-01-28T01:38:54.882Z,97619.69
2023-01-28T01:41:32.102Z,97626.72
2023-01-28T01:44:04.983Z,97625.38
2023-01-28T01:46:51.760Z,97621.97
2023-01-28T01:49:28.702Z,97627.72
2023-01-28T01:52:13.357Z,97621.91
2023-01-28T01:54:44.543Z,97630.66
2023-01-28T01:57:17.210Z,97623.06
2023-01-28T01:59:44.776Z,97621.97
2023-01-28T02:02:12.937Z,97629.63
2023-01-28T02:04:44.784Z,97626.72
2023-01-28T02:07:19.330Z,97627.59
2023-01-28T02:09:46.617Z,97624.38
2023-01-28T02:12:29.874Z,97626.84
2023-01-28T02:15:22.094Z,97629.56
2023-01-28T02:17:51.212Z,97635.56
2023-01-28T02:20:28.073Z,97631.75
2023-01-28T02:23:19.998Z,97635.81
2023-01-28T02:26:39.594Z,97643.94
2023-01-28T02:29:21.546Z,97639.38
2023-01-28T02:32:03.711Z,97638.88
2023-01-28T02:34:59.650Z,97631.50
2023-01-28T02:37:48.530Z,97631.69
2023-01-28T02:40:27.814Z,97626.78
2023-01-28T02:42:59.966Z,97633.03
2023-01-28T02:45:51.273Z,97627.84
2023-01-28T02:48:22.428Z,97631.28
2023-01-28T02:50:59.890Z,97628.03
2023-01-28T02:53:47.436Z,97632.09
2023-01-28T02:56:44.275Z,97637.34
2023-01-28T02:59:36.935Z,97635.06
2023-01-28T03:02:30.161Z,97631.50
2023-01-28T03:05:11.974Z,97631.19
2023-01-28T03:07:39.818Z,97633.69
2023-01-28T03:10:15.984Z,97635.25
2023-01-28T03:13:04.250Z,97633.81
2023-01-28T03:16:08.970Z,97635.69
2023-01-28T03:19:06.498Z,97633.53
2023-01-28T03:21:59.301Z,97630.19
2023-01-28T03:25:07.266Z,97626.31
2023-01-28T03:28:08.557Z,97631.03
2023-01-28T03:31:27.149Z,97629.63
2023-01-28T03:34:17.460Z,97635.91
2023-01-28T03:36:53.340Z,97638.59
2023-01-28T03:39:41.321Z,97634.63
2023-01-28T03:42:14.288Z,97634.88
2023-01-28T03:45:17.414Z,97632.69
2023-01-28T03:47:46.948Z,97638.53
2023-01-28T03:50:14.234Z,97630.97
2023-01-28T03:52:51.452Z,97634.75
2023-01-28T03:55:29.680Z,97640.00
2023-01-28T03:57:56.973Z,97645.25
2023-01-28T04:00:24.378Z,97643.91
2023-01-28T04:02:51.664Z,97644.25
2023-01-28T04:05:21.680Z,97646.84
2023-01-28T04:07:51.671Z,97647.84
2023-01-28T04:10:26.511Z,97647.72
2023-01-28T04:13:20.127Z,97646.72
2023-01-28T04:15:47.855Z,97649.94
2023-01-28T04:18:16.383Z,97651.56
2023-01-28T04:20:43.661Z,97647.59
2023-01-28T04:23:11.299Z,97652.56
2023-01-28T04:25:38.540Z,97657.94
2023-01-28T04:28:09.029Z,97658.00
2023-01-28T04:30:36.390Z,97654.28
2023-01-28T04:33:24.075Z,97654.53
2023-01-28T04:35:51.329Z,97659.75
2023-01-28T04:38:42.029Z,97660.81
2023-01-28T04:41:24.866Z,97668.69
2023-01-28T04:43:52.360Z,97665.59
2023-01-28T04:46:55.275Z,97664.53
2023-01-28T04:49:42.459Z,97668.06
2023-01-28T04:52:26.889Z,97669.59
2023-01-28T04:55:05.663Z,97669.84
2023-01-28T04:57:33.537Z,97670.53
2023-01-28T05:00:01.458Z,97668.53
2023-01-28T05:02:28.837Z,97668.69
2023-01-28T05:04:56.039Z,97672.41
2023-01-28T05:07:37.634Z,97668.97
2023-01-28T05:10:05.708Z,97674.59
2023-01-28T05:12:34.189Z,97666.19
2023-01-28T05:15:05.264Z,97669.06
2023-01-28T05:17:32.584Z,97670.00
2023-01-28T05:19:59.841Z,97671.16
2023-01-28T05:22:29.197Z,97668.00
2023-01-28T05:25:28.959Z,97673.50
2023-01-28T05:27:57.302Z,97681.44
2023-01-28T05:30:26.056Z,97684.16
2023-01-28T05:32:56.990Z,97681.00
2023-01-28T05:35:24.364Z,97678.34
2023-01-28T05:37:52.127Z,97683.28
2023-01-28T05:40:19.960Z,97679.53
2023-01-28T05:42:47.307Z,97693.22
2023-01-28T05:45:26.965Z,97685.38
2023-01-28T05:48:04.130Z,97688.25
2023-01-28T05:50:43.229Z,97712.81
2023-01-28T05:53:20.586Z,97688.41
2023-01-28T05:55:50.740Z,97698.00
2023-01-28T05:58:18.541Z,97698.03
2023-01-28T06:00:46.089Z,97701.72
2023-01-28T06:03:14.479Z,97712.31
2023-01-28T06:05:41.872Z,97712.16
2023-01-28T06:08:09.159Z,97708.22
2023-01-28T06:10:37.269Z,97717.56
2023-01-28T06:13:04.891Z,97718.59
2023-01-28T06:15:37.848Z,97723.09
2023-01-28T06:18:24.365Z,97728.91
2023-01-28T06:20:53.208Z,97730.06
2023-01-28T06:23:20.430Z,97739.28
2023-01-28T06:25:47.756Z,97737.94
2023-01-28T06:28:16.511Z,97740.25
2023-01-28T06:30:43.821Z,97739.16
2023-01-28T06:33:11.089Z,97744.19
2023-01-28T06:35:38.278Z,97751.22
2023-01-28T06:38:05.558Z,97754.00
2023-01-28T06:40:32.834Z,97756.97
2023-01-28T06:43:00.136Z,97750.72
2023-01-28T06:45:27.377Z,97754.38
2023-01-28T06:47:54.622Z,97755.72
2023-01-28T06:50:21.872Z,97755.72
2023-01-28T06:52:49.111Z,97757.50
2023-01-28T06:55:19.134Z,97762.13
2023-01-28T06:57:46.416Z,97763.50
2023-01-28T07:00:16.887Z,97770.38
2023-01-28T07:02:44.335Z,97768.03
2023-01-28T07:05:11.976Z,97768.88
2023-01-28T07:07:41.724Z,97771.91
2023-01-28T07:10:11.193Z,97775.81
2023-01-28T07:12:38.589Z,97777.50
2023-01-28T07:15:06.806Z,97776.53
2023-01-28T07:17:34.295Z,97782.69
2023-01-28T07:20:01.567Z,97781.06
2023-01-28T07:22:28.859Z,97784.75
2023-01-28T07:24:55.983Z,97790.31
2023-01-28T07:27:23.256Z,97794.75
2023-01-28T07:29:50.427Z,97795.91
2023-01-28T07:32:17.805Z,97794.81
2023-01-28T07:34:45.127Z,97793.91
2023-01-28T07:37:12.358Z,97791.03
2023-01-28T07:39:39.602Z,97800.63
2023-01-28T07:42:07.015Z,97789.25
2023-01-28T07:44:39.150Z,97794.00
2023-01-28T07:47:07.070Z,97794.38
2023-01-28T07:49:34.944Z,97801.19
2023-01-28T07:52:02.340Z,97801.47
2023-01-28T07:54:29.976Z,97798.63
2023-01-28T07:57:02.522Z,97793.16
2023-01-28T07:59:29.875Z,97809.25
2023-01-28T08:01:57.129Z,97799.59
2023-01-28T08:04:24.373Z,97801.78
2023-01-28T08:06:52.391Z,97795.50
2023-01-28T08:09:19.719Z,97807.19
2023-01-28T08:11:46.995Z,97809.56
2023-01-28T08:14:14.436Z,97808.38
2023-01-28T08:16:41.876Z,97813.31
2023-01-28T08:19:09.168Z,97812.69
2023-01-28T08:21:36.479Z,97809.81
2023-01-28T08:24:06.610Z,97810.63
2023-01-28T08:26:33.854Z,97805.09
2023-01-28T08:29:01.091Z,97802.13
2023-01-28T08:31:29.636Z,97815.53
2023-01-28T08:33:56.854Z,97821.13
2023-01-28T08:36:24.162Z,97820.03
2023-01-28T08:38:54.911Z,97820.25
2023-01-28T08:41:22.982Z,97823.78
2023-01-28T08:43:50.386Z,97823.72
2023-01-28T08:46:17.609Z,97829.78
2023-01-28T08:48:44.992Z,97833.81
2023-01-28T08:51:12.217Z,97826.22
2023-01-28T08:53:39.685Z,97838.91
2023-01-28T08:56:07.319Z,97833.38
2023-01-28T08:58:34.510Z,97833.91
2023-01-28T09:01:07.088Z,97836.31
2023-01-28T09:03:36.134Z,97837.00
2023-01-28T09:06:04.618Z,97848.56
2023-01-28T09:08:31.890Z,97850.41
2023-01-28T09:11:00.292Z,97850.47
2023-01-28T09:13:28.544Z,97853.31
2023-01-28T09:15:58.386Z,97852.84
2023-01-28T09:18:25.654Z,97855.06
2023-01-28T09:20:52.878Z,97852.53
2023-01-28T09:23:20.094Z,97854.44
2023-01-28T09:25:47.274Z,97855.91
2023-01-28T09:28:14.502Z,97861.25
2023-01-28T09:30:41.775Z,97850.09
2023-01-28T09:33:09.297Z,97848.91
2023-01-28T09:35:37.268Z,97857.06
2023-01-28T09:38:04.852Z,97862.09
2023-01-28T09:40:42.054Z,97858.25
2023-01-28T09:43:51.441Z,97846.97
2023-01-28T09:46:18.863Z,97858.44
2023-01-28T09:48:52.942Z,97861.06
2023-01-28T09:51:39.024Z,97857.41
2023-01-28T09:54:39.341Z,97846.50
2023-01-28T09:57:39.240Z,97854.91
2023-01-28T10:00:59.204Z,97851.81
2023-01-28T10:03:53.403Z,97862.00
2023-01-28T10:07:09.755Z,97859.69
2023-01-28T10:09:51.065Z,97856.19
2023-01-28T10:12:42.214Z,97858.34
2023-01-28T10:15:43.476Z,97858.28
2023-01-28T10:18:17.631Z,97857.91
2023-01-28T10:20:57.989Z,97857.38
2023-01-28T10:23:49.393Z,97856.50
2023-01-28T10:26:40.577Z,97857.81
2023-01-28T10:29:31.575Z,97856.50
2023-01-28T10:32:24.848Z,97846.75
2023-01-28T10:34:53.841Z,97851.91
2023-01-28T10:37:22.175Z,97858.38
2023-01-28T10:39:49.544Z,97860.16
2023-01-28T10:42:38.693Z,97853.69
2023-01-28T10:45:24.902Z,97856.13
2023-01-28T10:48:23.097Z,97859.44
2023-01-28T10:51:05.832Z,97860.75
2023-01-28T10:53:44.530Z,97853.59
2023-01-28T10:56:37.784Z,97853.41
2023-01-28T10:59:19.680Z,97850.47
2023-01-28T11:01:52.741Z,97850.47
2023-01-28T11:04:34.713Z,97856.28
2023-01-28T11:07:20.091Z,97853.78
2023-01-28T11:09:50.647Z,97860.06
2023-01-28T11:12:28.641Z,97856.53
2023-01-28T11:15:03.519Z,97846.91
2023-01-28T11:17:36.100Z,97858.97
2023-01-28T11:20:21.025Z,97856.84
2023-01-28T11:22:49.996Z,97856.13
2023-01-28T11:25:26.465Z,97855.34
2023-01-28T11:27:55.150Z,97859.94
2023-01-28T11:30:34.629Z,97860.63
2023-01-28T11:33:46.340Z,97858.41
2023-01-28T11:36:34.744Z,97851.94
2023-01-28T11:39:26.054Z,97857.16
2023-01-28T11:41:54.111Z,97857.75
2023-01-28T11:44:25.292Z,97857.13
2023-01-28T11:47:02.989Z,97846.63
2023-01-28T11:50:13.242Z,97853.47
2023-01-28T11:53:29.001Z,97849.41
2023-01-28T11:56:26.406Z,97849.94
2023-01-28T11:59:37.785Z,97855.75
2023-01-28T12:02:44.758Z,97848.28
2023-01-28T12:05:32.647Z,97857.50
2023-01-28T12:08:28.786Z,97850.50
2023-01-28T12:11:46.641Z,97855.19
2023-01-28T12:14:35.879Z,97840.72
2023-01-28T12:17:18.216Z,97849.44
2023-01-28T12:19:59.973Z,97852.19
2023-01-28T12:22:35.518Z,97847.28
2023-01-28T12:25:40.377Z,97848.03
2023-01-28T12:28:52.868Z,97856.50
2023-01-28T12:31:35.105Z,97854.31
2023-01-28T12:34:59.623Z,97846.66
2023-01-28T12:37:50.886Z,97860.22
2023-01-28T12:40:58.643Z,97857.06
2023-01-28T12:43:49.596Z,97855.56
2023-01-28T12:46:38.385Z,97860.34
2023-01-28T12:49:53.072Z,97854.97
2023-01-28T12:52:40.296Z,97862.94
2023-01-28T12:55:35.555Z,97862.69
2023-01-28T12:58:06.423Z,97867.69
2023-01-28T13:00:37.211Z,97870.28
2023-01-28T13:03:28.886Z,97873.78
2023-01-28T13:06:25.329Z,97874.34
2023-01-28T13:09:01.478Z,97876.19
2023-01-28T13:11:36.468Z,97879.06
2023-01-28T13:14:05.725Z,97888.69
2023-01-28T13:16:38.304Z,97885.72
2023-01-28T13:19:09.697Z,97890.91
2023-01-28T13:21:48.686Z,97897.09
2023-01-28T13:24:16.262Z,97889.78
2023-01-28T13:26:57.746Z,97894.75
2023-01-28T13:29:24.861Z,97900.19
2023-01-28T13:31:55.981Z,97895.19
2023-01-28T13:34:40.698Z,97890.66
2023-01-28T13:37:36.967Z,97892.75
2023-01-28T13:40:22.699Z,97890.84
2023-01-28T13:43:28.858Z,97890.66
2023-01-28T13:46:07.654Z,97894.56
2023-01-28T13:48:52.170Z,97895.19
2023-01-28T13:51:32.945Z,97888.00
2023-01-28T13:54:19.229Z,97891.84
2023-01-28T13:57:02.253Z,97901.47
2023-01-28T14:00:13.231Z,97899.16
2023-01-28T14:03:19.203Z,97907.41
2023-01-28T14:06:40.208Z,97912.31
2023-01-28T14:09:22.178Z,97909.19
2023-01-28T14:12:24.745Z,97912.69
2023-01-28T14:15:49.462Z,97910.38
2023-01-28T14:18:29.290Z,97921.50
2023-01-28T14:21:01.054Z,97922.22
2023-01-28T14:23:32.083Z,97921.03
2023-01-28T14:26:13.649Z,97928.13
2023-01-28T14:29:19.730Z,97931.44
2023-01-28T14:31:47.960Z,97930.03
2023-01-28T14:34:29.692Z,97929.28
2023-01-28T14:37:13.544Z,97925.94
2023-01-28T14:40:00.232Z,97928.53
2023-01-28T14:42:33.115Z,97929.16
2023-01-28T14:45:23.497Z,97926.63
2023-01-28T14:48:31.515Z,97935.72
2023-01-28T14:51:10.499Z,97929.78
2023-01-28T14:54:05.372Z,97928.78
2023-01-28T14:56:55.723Z,97930.94
2023-01-28T14:59:49.779Z,97925.53
2023-01-28T15:02:26.962Z,97931.22
2023-01-28T15:04:54.754Z,97946.47
2023-01-28T15:07:27.668Z,97943.59
2023-01-28T15:10:05.261Z,97949.53
2023-01-28T15:12:40.086Z,97956.13
2023-01-28T15:15:30.578Z,97955.59
2023-01-28T15:19:00.431Z,97957.13
2023-01-28T15:21:31.024Z,97952.50
2023-01-28T15:24:03.306Z,97961.41
2023-01-28T15:26:35.009Z,97960.25
2023-01-28T15:29:02.353Z,97957.50
2023-01-28T15:31:33.872Z,97966.09
2023-01-28T15:34:17.974Z,97971.47
2023-01-28T15:36:49.732Z,97968.16
2023-01-28T15:39:23.567Z,97973.56
2023-01-28T15:42:06.812Z,97970.03
2023-01-28T15:44:44.172Z,97980.91
2023-01-28T15:47:33.982Z,97975.88
2023-01-28T15:50:06.839Z,97977.31
2023-01-28T15:52:41.070Z,97972.38
2023-01-28T15:55:40.905Z,97982.25
2023-01-28T15:58:21.025Z,97985.53
2023-01-28T16:00:49.438Z,97985.97
2023-01-28T16:03:23.484Z,97990.72
2023-01-28T16:06:09.484Z,97992.59
2023-01-28T16:08:58.970Z,97988.28
2023-01-28T16:11:44.828Z,97997.63
2023-01-28T16:14:37.538Z,97994.16
2023-01-28T16:17:05.446Z,97994.84
2023-01-28T16:19:46.818Z,97989.66
2023-01-28T16:22:39.560Z,97995.38
2023-01-28T16:25:21.763Z,98003.41
2023-01-28T16:27:49.746Z,97999.94
2023-01-28T16:30:18.243Z,98004.88
2023-01-28T16:32:46.029Z,98006.84
2023-01-28T16:35:20.854Z,98003.75
2023-01-28T16:37:49.802Z,98002.63
2023-01-28T16:40:23.671Z,98008.44
2023-01-28T16:42:55.956Z,98013.47
2023-01-28T16:45:26.742Z,98008.63
2023-01-28T16:47:53.793Z,98016.25
2023-01-28T16:50:23.044Z,98012.69
2023-01-28T16:52:53.736Z,98018.84
2023-01-28T16:55:22.632Z,98012.72
2023-01-28T16:57:53.561Z,98015.72
2023-01-28T17:00:26.619Z,98017.31
2023-01-28T17:02:54.964Z,98014.88
2023-01-28T17:05:23.471Z,98018.91
2023-01-28T17:07:51.117Z,98024.50
2023-01-28T17:10:20.613Z,98025.28
2023-01-28T17:12:54.585Z,98027.28
2023-01-28T17:15:21.936Z,98026.63
2023-01-28T17:17:50.738Z,98029.81
2023-01-28T17:20:18.161Z,98022.06
2023-01-28T17:22:45.866Z,98020.72
2023-01-28T17:25:16.609Z,98019.22
2023-01-28T17:27:44.207Z,98016.78
2023-01-28T17:30:12.181Z,98022.44
2023-01-28T17:32:39.383Z,98037.28
2023-01-28T17:35:07.220Z,98032.75
2023-01-28T17:37:34.465Z,98028.44
2023-01-28T17:40:03.081Z,98029.53
2023-01-28T17:42:31.227Z,98033.72
2023-01-28T17:45:03.099Z,98034.75
2023-01-28T17:47:31.140Z,98038.09
2023-01-28T17:49:58.692Z,98040.09
2023-01-28T17:52:26.351Z,98036.06
2023-01-28T17:54:54.017Z,98042.75
2023-01-28T17:57:24.084Z,98038.34
2023-01-28T17:59:51.469Z,98040.44
2023-01-28T18:02:18.820Z,98045.81
2023-01-28T18:04:46.091Z,98047.31
2023-01-28T18:07:13.537Z,98064.34
2023-01-28T18:09:43.979Z,98059.84
2023-01-28T18:12:14.558Z,98051.69
2023-01-28T18:14:42.081Z,98060.31
2023-01-28T18:17:11.149Z,98060.50
2023-01-28T18:19:38.655Z,98056.47
2023-01-28T18:22:08.221Z,98065.88
2023-01-28T18:24:35.492Z,98068.47
2023-01-28T18:27:04.275Z,98066.88
2023-01-28T18:29:31.971Z,98071.34
2023-01-28T18:31:59.779Z,98074.50
2023-01-28T18:34:31.654Z,98070.19
2023-01-28T18:36:59.626Z,98068.84
2023-01-28T18:39:31.542Z,98076.34
2023-01-28T18:42:00.221Z,98061.94
2023-01-28T18:44:33.233Z,98066.78
2023-01-28T18:47:00.651Z,98070.72
2023-01-28T18:49:27.932Z,98074.75
2023-01-28T18:51:55.190Z,98070.09
2023-01-28T18:54:23.438Z,98072.06
2023-01-28T18:56:50.824Z,98072.25
2023-01-28T18:59:18.196Z,98071.63
2023-01-28T19:01:48.015Z,98066.88
2023-01-28T19:04:16.433Z,98069.75
2023-01-28T19:06:43.999Z,98062.94
2023-01-28T19:09:14.509Z,98068.59
2023-01-28T19:11:42.866Z,98066.59
2023-01-28T19:14:14.584Z,98077.56
2023-01-28T19:16:44.276Z,98087.22
2023-01-28T19:19:12.242Z,98084.72
2023-01-28T19:21:39.737Z,98081.66
2023-01-28T19:24:10.809Z,98079.34
2023-01-28T19:26:41.660Z,98086.56
2023-01-28T19:29:10.555Z,98089.72
2023-01-28T19:31:39.212Z,98086.31
2023-01-28T19:34:06.945Z,98078.69
2023-01-28T19:36:34.846Z,98080.50
2023-01-28T19:39:07.144Z,98080.66
2023-01-28T19:41:35.330Z,98082.03
2023-01-28T19:44:05.568Z,98089.25
2023-01-28T19:46:36.159Z,98090.59
2023-01-28T19:49:06.433Z,98102.34
2023-01-28T19:51:33.974Z,98102.59
2023-01-28T19:54:01.481Z,98100.75
2023-01-28T19:56:30.010Z,98105.19
2023-01-28T19:58:57.471Z,98107.81
2023-01-28T20:01:30.157Z,98097.41
2023-01-28T20:04:00.571Z,98105.03
2023-01-28T20:06:33.471Z,98113.00
2023-01-28T20:09:15.468Z,98108.63
2023-01-28T20:11:43.070Z,98112.56
2023-01-28T20:14:10.497Z,98104.25
2023-01-28T20:16:40.265Z,98110.50
2023-01-28T20:19:14.498Z,98111.47
2023-01-28T20:21:42.240Z,98109.56
2023-01-28T20:24:12.499Z,98117.25
2023-01-28T20:26:42.302Z,98116.09
2023-01-28T20:29:18.080Z,98119.22
2023-01-28T20:31:46.017Z,98118.13
2023-01-28T20:34:20.127Z,98114.94
2023-01-28T20:36:47.654Z,98116.75
2023-01-28T20:39:15.045Z,98121.31
2023-01-28T20:41:42.325Z,98127.69
2023-01-28T20:44:09.627Z,98134.25
2023-01-28T20:46:38.591Z,98128.69
2023-01-28T20:49:10.251Z,98142.06
2023-01-28T20:51:38.343Z,98135.59
2023-01-28T20:54:06.246Z,98135.53
2023-01-28T20:56:33.876Z,98130.94
2023-01-28T20:59:04.733Z,98131.53
2023-01-28T21:01:35.388Z,98130.66
2023-01-28T21:04:04.332Z,98133.63
2023-01-28T21:06:31.965Z,98141.69
2023-01-28T21:08:59.817Z,98137.31
2023-01-28T21:11:27.727Z,98134.53
2023-01-28T21:13:55.703Z,98133.66
2023-01-28T21:16:24.313Z,98138.03
2023-01-28T21:18:52.206Z,98145.66
2023-01-28T21:21:26.374Z,98139.72
2023-01-28T21:23:58.108Z,98147.00
2023-01-28T21:26:26.742Z,98148.69
2023-01-28T21:28:56.998Z,98155.41
2023-01-28T21:31:26.612Z,98158.63
2023-01-28T21:33:56.921Z,98148.06
2023-01-28T21:36:26.080Z,98151.13
2023-01-28T21:38:59.969Z,98157.09
2023-01-28T21:41:28.083Z,98149.47
2023-01-28T21:43:57.658Z,98153.00
2023-01-28T21:46:34.289Z,98155.47
2023-01-28T21:49:04.157Z,98170.53
2023-01-28T21:51:36.570Z,98175.19
2023-01-28T21:54:12.983Z,98168.47
2023-01-28T21:56:46.424Z,98166.03
2023-01-28T21:59:30.865Z,98183.38
2023-01-28T22:02:11.069Z,98172.50
2023-01-28T22:04:46.744Z,98173.34
2023-01-28T22:07:18.283Z,98168.66
2023-01-28T22:09:47.128Z,98174.03
2023-01-28T22:12:15.502Z,98175.47
2023-01-28T22:14:43.632Z,98175.13
2023-01-28T22:17:12.038Z,98180.22
2023-01-28T22:19:39.974Z,98172.53
2023-01-28T22:22:07.240Z,98175.75
2023-01-28T22:24:34.644Z,98162.66
2023-01-28T22:27:06.394Z,98159.53
2023-01-28T22:29:33.605Z,98166.78
2023-01-28T22:32:04.222Z,98163.56
2023-01-28T22:34:31.783Z,98158.44
2023-01-28T22:36:59.193Z,98169.34
2023-01-28T22:39:26.435Z,98162.00
2023-01-28T22:41:53.660Z,98165.09
2023-01-28T22:44:20.977Z,98160.34
2023-01-28T22:46:48.393Z,98165.44
2023-01-28T22:49:15.616Z,98171.84
2023-01-28T22:51:43.031Z,98167.25
2023-01-28T22:54:12.272Z,98168.22
2023-01-28T22:56:40.242Z,98170.41
2023-01-28T22:59:07.572Z,98185.47
2023-01-28T23:01:35.945Z,98188.88
2023-01-28T23:04:03.938Z,98184.34
2023-01-28T23:06:31.747Z,98196.97
2023-01-28T23:08:59.200Z,98201.44
2023-01-28T23:11:29.174Z,98192.66
2023-01-28T23:14:18.076Z,98193.38
2023-01-28T23:17:04.154Z,98194.50
2023-01-28T23:19:50.497Z,98187.59
2023-01-28T23:22:46.658Z,98189.16
2023-01-28T23:25:14.291Z,98190.63
2023-01-28T23:27:42.418Z,98191.28
2023-01-28T23:30:11.678Z,98191.31
2023-01-28T23:32:47.125Z,98188.56
2023-01-28T23:35:14.965Z,98188.88
2023-01-28T23:37:42.215Z,98190.94
2023-01-28T23:40:12.658Z,98196.16
2023-01-28T23:42:39.946Z,98194.41
2023-01-28T23:45:08.338Z,98193.22
2023-01-28T23:47:35.518Z,98182.09
2023-01-28T23:50:03.043Z,98182.72
2023-01-28T23:52:30.288Z,98179.66
2023-01-28T23:54:57.514Z,98184.00
2023-01-28T23:57:24.807Z,98180.63
2023-01-28T23:59:52.015Z,98182.91
